createdAt,value
2019-01-06T00:03:16.236Z,83.74
2019-01-06T00:07:00.972Z,83.97
2019-01-06T00:10:43.774Z,83.97
2019-01-06T00:14:26.742Z,84.01
2019-01-06T00:18:26.412Z,83.53
2019-01-06T00:22:19.972Z,84.01
2019-01-06T00:26:07.510Z,83.93
2019-01-06T00:30:04.140Z,83.92
2019-01-06T00:34:06.793Z,84.18
2019-01-06T00:37:51.250Z,83.57
2019-01-06T00:41:34.303Z,83.50
2019-01-06T00:45:17.737Z,84.12
2019-01-06T00:49:02.182Z,84.04
2019-01-06T00:52:44.971Z,84.28
2019-01-06T00:56:47.522Z,85.07
2019-01-06T01:00:34.018Z,85.06
2019-01-06T01:04:17.056Z,85.12
2019-01-06T01:08:04.804Z,85.91
2019-01-06T01:12:01.061Z,84.32
2019-01-06T01:15:46.769Z,85.29
2019-01-06T01:19:36.160Z,85.18
2019-01-06T01:23:11.208Z,84.62
2019-01-06T01:27:04.858Z,85.69
2019-01-06T01:30:52.090Z,84.40
2019-01-06T01:34:31.355Z,84.56
2019-01-06T01:38:24.804Z,85.77
2019-01-06T01:42:09.255Z,85.76
2019-01-06T01:45:56.472Z,85.84
2019-01-06T01:49:52.972Z,85.77
2019-01-06T01:53:35.110Z,85.50
2019-01-06T01:57:37.829Z,85.82
2019-01-06T02:01:16.840Z,87.09
2019-01-06T02:05:00.082Z,85.58
2019-01-06T02:08:50.436Z,86.02
2019-01-06T02:12:40.674Z,85.73
2019-01-06T02:16:40.048Z,86.29
2019-01-06T02:20:33.452Z,85.75
2019-01-06T02:24:32.839Z,85.60
2019-01-06T02:28:15.692Z,84.93
2019-01-06T02:32:03.119Z,85.65
2019-01-06T02:35:50.350Z,85.90
2019-01-06T02:39:29.848Z,85.94
2019-01-06T02:43:15.222Z,85.24
2019-01-06T02:47:09.616Z,85.78
2019-01-06T02:50:54.072Z,85.83
2019-01-06T02:54:48.006Z,85.69
2019-01-06T02:58:35.504Z,85.39
2019-01-06T03:02:22.689Z,85.76
2019-01-06T03:06:22.358Z,85.73
2019-01-06T03:10:09.839Z,85.80
2019-01-06T03:13:46.166Z,85.59
2019-01-06T03:17:30.600Z,84.67
2019-01-06T03:21:15.070Z,85.70
2019-01-06T03:25:05.530Z,84.26
2019-01-06T03:28:57.903Z,84.61
2019-01-06T03:32:40.901Z,84.36
2019-01-06T03:36:31.399Z,83.70
2019-01-06T03:40:14.625Z,83.38
2019-01-06T03:43:57.512Z,84.29
2019-01-06T03:47:51.293Z,83.43
2019-01-06T03:51:38.781Z,83.83
2019-01-06T03:55:41.541Z,83.25
2019-01-06T03:59:29.041Z,83.77
2019-01-06T04:03:11.987Z,83.29
2019-01-06T04:06:54.852Z,82.83
2019-01-06T04:10:37.678Z,84.21
2019-01-06T04:14:20.878Z,83.65
2019-01-06T04:18:11.381Z,83.56
2019-01-06T04:21:54.437Z,83.40
2019-01-06T04:25:38.885Z,82.87
2019-01-06T04:29:28.816Z,82.79
2019-01-06T04:33:19.361Z,82.70
2019-01-06T04:37:03.847Z,82.88
2019-01-06T04:41:04.110Z,82.49
2019-01-06T04:44:42.284Z,82.83
2019-01-06T04:48:25.213Z,83.50
2019-01-06T04:52:12.788Z,82.37
2019-01-06T04:55:57.310Z,82.99
2019-01-06T04:59:44.604Z,83.59
2019-01-06T05:03:44.210Z,82.67
2019-01-06T05:07:41.104Z,83.16
2019-01-06T05:11:25.566Z,83.51
2019-01-06T05:15:10.032Z,83.68
2019-01-06T05:18:53.155Z,83.43
2019-01-06T05:22:53.285Z,83.28
2019-01-06T05:26:42.393Z,83.65
2019-01-06T05:30:25.728Z,82.64
2019-01-06T05:34:08.797Z,82.61
2019-01-06T05:37:52.106Z,83.87
2019-01-06T05:41:48.476Z,83.21
2019-01-06T05:45:50.970Z,82.34
2019-01-06T05:49:34.000Z,82.12
2019-01-06T05:53:30.718Z,81.67
2019-01-06T05:57:27.130Z,81.65
2019-01-06T06:01:17.594Z,82.04
2019-01-06T06:05:17.275Z,81.94
2019-01-06T06:09:01.738Z,81.58
2019-01-06T06:12:50.921Z,81.55
2019-01-06T06:16:35.381Z,82.60
2019-01-06T06:20:25.616Z,81.53
2019-01-06T06:24:08.688Z,81.99
2019-01-06T06:28:11.068Z,82.23
2019-01-06T06:31:49.253Z,81.52
2019-01-06T06:35:32.329Z,83.00
2019-01-06T06:39:19.593Z,81.92
2019-01-06T06:43:04.049Z,80.67
2019-01-06T06:46:46.889Z,81.36
2019-01-06T06:50:29.702Z,80.94
2019-01-06T06:54:14.685Z,81.37
2019-01-06T06:58:40.139Z,81.27
2019-01-06T07:03:13.260Z,80.69
2019-01-06T07:06:57.669Z,81.23
2019-01-06T07:10:42.157Z,81.41
2019-01-06T07:14:38.485Z,82.34
2019-01-06T07:18:34.657Z,82.44
2019-01-06T07:22:15.851Z,82.41
2019-01-06T07:26:00.669Z,81.22
2019-01-06T07:29:52.182Z,82.82
2019-01-06T07:33:39.452Z,81.89
2019-01-06T07:37:39.271Z,81.93
2019-01-06T07:41:32.643Z,82.12
2019-01-06T07:45:15.878Z,83.26
2019-01-06T07:49:00.653Z,82.33
2019-01-06T07:52:43.562Z,83.32
2019-01-06T07:56:24.772Z,82.99
2019-01-06T08:00:01.937Z,83.14
2019-01-06T08:03:55.782Z,82.42
2019-01-06T08:07:49.332Z,82.63
2019-01-06T08:11:32.439Z,83.16
2019-01-06T08:15:18.499Z,82.06
2019-01-06T08:19:08.565Z,82.39
2019-01-06T08:23:08.146Z,82.32
2019-01-06T08:27:02.973Z,82.60
2019-01-06T08:31:02.636Z,82.24
2019-01-06T08:34:52.183Z,82.48
2019-01-06T08:38:35.299Z,82.08
2019-01-06T08:42:28.681Z,82.27
2019-01-06T08:46:13.077Z,83.08
2019-01-06T08:49:56.657Z,82.03
2019-01-06T08:53:50.225Z,82.00
2019-01-06T08:57:50.331Z,81.92
2019-01-06T09:01:39.777Z,83.33
2019-01-06T09:05:31.814Z,81.52
2019-01-06T09:09:12.489Z,82.72
2019-01-06T09:13:15.105Z,82.92
2019-01-06T09:16:58.019Z,82.42
2019-01-06T09:20:45.742Z,82.58
2019-01-06T09:24:27.089Z,81.40
2019-01-06T09:28:29.524Z,81.77
2019-01-06T09:32:26.279Z,81.74
2019-01-06T09:36:09.370Z,81.90
2019-01-06T09:39:56.897Z,82.26
2019-01-06T09:43:40.183Z,80.85
2019-01-06T09:50:50.922Z,80.58
2019-01-06T09:54:38.217Z,80.87
2019-01-06T09:58:34.861Z,80.04
2019-01-06T10:02:14.926Z,79.73
2019-01-06T10:06:03.586Z,80.24
2019-01-06T10:09:59.941Z,79.44
2019-01-06T10:13:56.482Z,79.89
2019-01-06T10:17:46.709Z,79.62
2019-01-06T10:21:43.090Z,78.46
2019-01-06T10:25:33.419Z,79.28
2019-01-06T10:29:17.844Z,78.58
2019-01-06T10:33:04.999Z,78.42
2019-01-06T10:36:48.245Z,78.44
2019-01-06T10:40:25.973Z,78.58
2019-01-06T10:44:04.744Z,78.96
2019-01-06T10:48:04.160Z,78.43
2019-01-06T10:51:47.230Z,79.32
2019-01-06T10:55:49.693Z,77.96
2019-01-06T10:59:40.069Z,79.50
2019-01-06T11:03:22.956Z,79.58
2019-01-06T11:07:12.678Z,79.01
2019-01-06T11:10:57.166Z,79.97
2019-01-06T11:14:53.775Z,80.57
2019-01-06T11:18:44.238Z,80.71
2019-01-06T11:22:30.126Z,79.61
2019-01-06T11:26:13.126Z,80.08
2019-01-06T11:30:09.603Z,79.99
2019-01-06T11:34:09.394Z,78.36
2019-01-06T11:37:59.859Z,78.01
2019-01-06T11:41:51.549Z,77.86
2019-01-06T11:45:51.187Z,77.18
2019-01-06T11:49:34.286Z,76.25
2019-01-06T11:53:14.474Z,75.46
2019-01-06T11:56:57.319Z,73.71
2019-01-06T12:00:40.494Z,73.29
2019-01-06T12:04:27.886Z,71.89
2019-01-06T12:08:21.459Z,72.46
2019-01-06T12:12:07.058Z,72.23
2019-01-06T12:16:01.389Z,72.57
2019-01-06T12:19:44.545Z,73.37
2019-01-06T12:23:27.385Z,73.59
2019-01-06T12:27:17.910Z,73.53
2019-01-06T12:31:02.356Z,74.04
2019-01-06T12:34:47.129Z,70.98
2019-01-06T12:38:30.385Z,69.67
2019-01-06T12:42:18.127Z,71.40
2019-01-06T12:46:03.373Z,71.07
2019-01-06T12:49:47.827Z,71.81
2019-01-06T12:53:38.946Z,72.48
2019-01-06T12:57:20.862Z,71.44
2019-01-06T13:01:09.460Z,70.60
2019-01-06T13:04:58.696Z,71.83
2019-01-06T13:08:41.945Z,70.62
2019-01-06T13:12:32.913Z,69.73
2019-01-06T13:16:15.870Z,71.94
2019-01-06T13:20:12.091Z,70.54
2019-01-06T13:23:56.626Z,71.58
2019-01-06T13:27:56.746Z,72.49
2019-01-06T13:31:39.631Z,71.18
2019-01-06T13:35:42.274Z,66.93
2019-01-06T13:39:24.257Z,66.89
2019-01-06T13:43:02.061Z,66.39
2019-01-06T13:46:49.518Z,64.91
2019-01-06T13:50:38.492Z,63.49
2019-01-06T13:54:30.081Z,66.37
2019-01-06T13:58:09.890Z,64.90
2019-01-06T14:01:52.822Z,66.54
2019-01-06T14:05:35.628Z,66.74
2019-01-06T14:09:18.727Z,67.82
2019-01-06T14:13:02.036Z,67.25
2019-01-06T14:16:52.264Z,69.02
2019-01-06T14:20:35.739Z,68.23
2019-01-06T14:24:29.046Z,68.77
2019-01-06T14:28:12.225Z,68.85
2019-01-06T14:31:55.062Z,68.57
2019-01-06T14:35:39.791Z,68.87
2019-01-06T14:39:28.162Z,69.33
2019-01-06T14:43:11.348Z,70.56
2019-01-06T14:47:07.844Z,69.80
2019-01-06T14:50:50.743Z,70.33
2019-01-06T14:54:35.288Z,69.01
2019-01-06T14:58:27.993Z,69.27
2019-01-06T15:02:23.176Z,69.08
2019-01-06T15:06:13.771Z,70.79
2019-01-06T15:10:13.197Z,70.44
2019-01-06T15:14:06.816Z,71.92
2019-01-06T15:17:49.631Z,71.35
2019-01-06T15:21:52.064Z,71.32
2019-01-06T15:25:35.482Z,71.46
2019-01-06T15:29:38.505Z,72.45
2019-01-06T15:33:32.030Z,71.60
2019-01-06T15:37:19.773Z,71.58
2019-01-06T15:41:07.131Z,70.54
2019-01-06T15:44:57.467Z,71.38
2019-01-06T15:48:44.930Z,72.09
2019-01-06T15:52:28.084Z,72.62
2019-01-06T15:56:30.494Z,72.31
2019-01-06T16:00:29.838Z,72.66
2019-01-06T16:04:13.094Z,72.93
2019-01-06T16:07:56.247Z,72.42
2019-01-06T16:11:39.341Z,73.04
2019-01-06T16:15:22.541Z,73.99
2019-01-06T16:19:05.529Z,73.81
2019-01-06T16:22:48.744Z,73.79
2019-01-06T16:26:25.095Z,73.61
2019-01-06T16:30:27.528Z,73.23
2019-01-06T16:34:12.147Z,73.89
2019-01-06T16:38:11.812Z,75.29
2019-01-06T16:41:54.994Z,76.15
2019-01-06T16:45:38.163Z,76.76
2019-01-06T16:49:21.217Z,77.01
2019-01-06T16:53:20.817Z,76.84
2019-01-06T16:57:15.285Z,77.65
2019-01-06T17:01:10.131Z,78.33
2019-01-06T17:04:53.804Z,79.75
2019-01-06T17:08:53.391Z,78.98
2019-01-06T17:12:39.525Z,78.91
2019-01-06T17:16:24.062Z,80.13
2019-01-06T17:20:08.510Z,79.89
2019-01-06T17:23:51.584Z,80.42
2019-01-06T17:27:47.875Z,80.83
2019-01-06T17:31:30.734Z,81.26
2019-01-06T17:35:18.203Z,81.16
2019-01-06T17:39:02.694Z,80.75
2019-01-06T17:42:45.789Z,81.39
2019-01-06T17:46:28.896Z,81.55
2019-01-06T17:50:20.352Z,81.41
2019-01-06T17:54:21.325Z,82.31
2019-01-06T17:58:09.550Z,82.03
2019-01-06T18:01:54.163Z,82.53
2019-01-06T18:05:41.689Z,81.79
2019-01-06T18:09:26.644Z,81.51
2019-01-06T18:13:09.563Z,81.69
2019-01-06T18:16:52.468Z,82.27
2019-01-06T18:20:42.783Z,82.64
2019-01-06T18:24:26.265Z,82.64
2019-01-06T18:28:09.464Z,82.84
2019-01-06T18:31:52.324Z,82.81
2019-01-06T18:35:35.495Z,82.13
2019-01-06T18:39:32.264Z,82.55
2019-01-06T18:43:19.867Z,82.65
2019-01-06T18:47:16.087Z,82.51
2019-01-06T18:51:06.323Z,82.35
2019-01-06T18:55:05.819Z,82.55
2019-01-06T18:58:48.676Z,82.43
2019-01-06T19:02:33.103Z,82.08
2019-01-06T19:06:26.889Z,82.45
2019-01-06T19:10:20.644Z,82.20
2019-01-06T19:14:19.973Z,82.62
2019-01-06T19:18:13.593Z,82.91
2019-01-06T19:22:04.314Z,82.44
2019-01-06T19:25:47.709Z,81.76
2019-01-06T19:29:40.106Z,81.91
2019-01-06T19:33:35.146Z,83.04
2019-01-06T19:37:18.763Z,82.41
2019-01-06T19:41:06.427Z,82.29
2019-01-06T19:45:00.880Z,82.71
2019-01-06T19:48:57.458Z,82.62
2019-01-06T19:52:40.657Z,82.47
2019-01-06T19:56:28.049Z,82.89
2019-01-06T20:00:27.769Z,81.94
2019-01-06T20:04:24.953Z,82.01
2019-01-06T20:08:18.787Z,82.46
2019-01-06T20:12:09.668Z,82.11
2019-01-06T20:16:05.965Z,82.18
2019-01-06T20:19:53.765Z,81.97
2019-01-06T20:23:38.451Z,82.25
2019-01-06T20:27:23.301Z,82.04
2019-01-06T20:31:16.963Z,81.89
2019-01-06T20:35:04.656Z,81.66
2019-01-06T20:38:47.725Z,82.23
2019-01-06T20:42:31.015Z,81.95
2019-01-06T20:46:13.847Z,82.85
2019-01-06T20:49:57.159Z,81.72
2019-01-06T20:53:54.406Z,82.37
2019-01-06T20:57:38.859Z,82.73
2019-01-06T21:01:22.616Z,81.86
2019-01-06T21:05:20.387Z,81.71
2019-01-06T21:09:04.186Z,81.35
2019-01-06T21:13:00.967Z,81.98
2019-01-06T21:16:44.215Z,82.08
2019-01-06T21:20:27.485Z,82.08
2019-01-06T21:24:10.776Z,82.16
2019-01-06T21:28:07.486Z,82.09
2019-01-06T21:31:54.831Z,81.75
2019-01-06T21:35:37.905Z,82.22
2019-01-06T21:39:15.608Z,81.94
2019-01-06T21:42:58.829Z,82.04
2019-01-06T21:46:38.084Z,81.63
2019-01-06T21:50:34.563Z,80.95
2019-01-06T21:54:19.284Z,81.45
2019-01-06T21:58:03.674Z,81.57
2019-01-06T22:02:00.150Z,82.25
2019-01-06T22:05:43.608Z,82.06
2019-01-06T22:09:28.499Z,81.45
2019-01-06T22:13:25.099Z,81.63
2019-01-06T22:17:12.338Z,81.69
2019-01-06T22:21:08.917Z,81.61
2019-01-06T22:25:08.802Z,80.70
2019-01-06T22:29:02.248Z,80.78
2019-01-06T22:32:46.689Z,81.14
2019-01-06T22:36:29.589Z,80.95
2019-01-06T22:40:12.681Z,81.37
2019-01-06T22:43:55.823Z,81.50
2019-01-06T22:47:38.630Z,81.50
2019-01-06T22:51:21.436Z,81.66
2019-01-06T22:55:04.532Z,80.96
2019-01-06T22:58:53.859Z,81.22
2019-01-06T23:02:34.763Z,81.19
2019-01-06T23:06:28.418Z,81.14
2019-01-06T23:10:21.886Z,81.23
2019-01-06T23:14:17.026Z,82.46
2019-01-06T23:18:16.421Z,82.05
2019-01-06T23:22:03.880Z,80.79
2019-01-06T23:25:55.020Z,80.56
2019-01-06T23:29:38.411Z,80.63
2019-01-06T23:33:21.196Z,80.28
2019-01-06T23:37:04.013Z,80.75
2019-01-06T23:40:47.057Z,80.48
2019-01-06T23:44:29.982Z,79.55
2019-01-06T23:48:14.426Z,80.27
2019-01-06T23:52:01.640Z,79.43
2019-01-06T23:55:44.668Z,79.49
2019-01-06T23:59:29.066Z,79.65
